createdAt,value
2023-03-17T00:00:11.123Z,4.98
2023-03-17T00:02:37.465Z,4.95
2023-03-17T00:05:03.768Z,5.31
2023-03-17T00:07:30.063Z,5.69
2023-03-17T00:09:56.384Z,4.98
2023-03-17T00:12:22.690Z,5.16
2023-03-17T00:14:48.975Z,5.12
2023-03-17T00:17:15.286Z,4.99
2023-03-17T00:19:41.580Z,5.33
2023-03-17T00:22:07.877Z,5.28
2023-03-17T00:24:34.197Z,5.06
2023-03-17T00:27:00.504Z,4.94
2023-03-17T00:29:26.824Z,4.59
2023-03-17T00:31:53.164Z,5.05
2023-03-17T00:34:19.465Z,4.77
2023-03-17T00:36:45.771Z,4.67
2023-03-17T00:39:12.126Z,4.31
2023-03-17T00:41:38.416Z,4.59
2023-03-17T00:44:04.711Z,4.75
2023-03-17T00:46:31.060Z,4.74
2023-03-17T00:48:57.377Z,4.79
2023-03-17T00:51:23.670Z,4.54
2023-03-17T00:53:50.039Z,4.57
2023-03-17T00:56:16.345Z,4.47
2023-03-17T00:58:42.634Z,4.12
2023-03-17T01:01:09.008Z,4.05
2023-03-17T01:03:35.349Z,4.15
2023-03-17T01:06:01.657Z,4.20
2023-03-17T01:08:28.009Z,4.27
2023-03-17T01:10:54.300Z,4.39
2023-03-17T01:13:20.593Z,4.36
2023-03-17T01:15:46.909Z,4.43
2023-03-17T01:18:13.213Z,4.39
2023-03-17T01:20:39.526Z,4.41
2023-03-17T01:23:05.838Z,4.31
2023-03-17T01:25:32.150Z,4.07
2023-03-17T01:27:58.446Z,3.85
2023-03-17T01:30:24.764Z,4.28
2023-03-17T01:32:51.113Z,4.99
2023-03-17T01:35:17.441Z,5.26
2023-03-17T01:37:43.765Z,5.52
2023-03-17T01:40:10.063Z,4.92
2023-03-17T01:42:36.397Z,5.02
2023-03-17T01:45:02.706Z,4.71
2023-03-17T01:47:29.002Z,4.91
2023-03-17T01:49:55.295Z,4.76
2023-03-17T01:52:21.607Z,4.71
2023-03-17T01:54:47.898Z,4.74
2023-03-17T01:57:14.208Z,4.91
2023-03-17T01:59:40.557Z,5.16
2023-03-17T02:02:06.856Z,5.39
2023-03-17T02:04:33.206Z,5.21
2023-03-17T02:06:59.532Z,5.45
2023-03-17T02:09:25.818Z,5.23
2023-03-17T02:11:52.108Z,5.23
2023-03-17T02:14:18.410Z,5.28
2023-03-17T02:16:44.723Z,5.77
2023-03-17T02:19:11.037Z,6.07
2023-03-17T02:21:37.369Z,5.86
2023-03-17T02:24:03.668Z,5.81
2023-03-17T02:26:30.035Z,6.15
2023-03-17T02:28:56.353Z,6.05
2023-03-17T02:31:22.693Z,6.48
2023-03-17T02:33:49.026Z,6.01
2023-03-17T02:36:15.373Z,5.76
2023-03-17T02:38:41.700Z,6.02
2023-03-17T02:41:07.991Z,5.81
2023-03-17T02:43:34.356Z,5.78
2023-03-17T02:46:00.704Z,6.01
2023-03-17T02:48:27.090Z,5.93
2023-03-17T02:50:53.404Z,6.12
2023-03-17T02:53:19.713Z,6.02
2023-03-17T02:55:46.010Z,6.00
2023-03-17T02:58:12.331Z,5.69
2023-03-17T03:00:38.619Z,6.09
2023-03-17T03:03:04.914Z,5.57
2023-03-17T03:05:31.276Z,5.65
2023-03-17T03:07:57.564Z,5.85
2023-03-17T03:10:23.858Z,5.53
2023-03-17T03:12:50.166Z,5.73
2023-03-17T03:15:16.459Z,5.48
2023-03-17T03:17:42.760Z,5.64
2023-03-17T03:20:09.076Z,5.45
2023-03-17T03:22:35.402Z,5.92
2023-03-17T03:25:03.620Z,5.60
2023-03-17T03:27:29.951Z,5.74
2023-03-17T03:29:56.248Z,5.57
2023-03-17T03:32:22.558Z,5.45
2023-03-17T03:34:48.886Z,5.59
2023-03-17T03:37:15.189Z,6.01
2023-03-17T03:39:41.494Z,5.76
2023-03-17T03:42:07.824Z,5.59
2023-03-17T03:44:34.123Z,5.90
2023-03-17T03:47:00.430Z,5.92
2023-03-17T03:49:26.742Z,5.95
2023-03-17T03:51:53.032Z,5.55
2023-03-17T03:54:19.342Z,6.27
2023-03-17T03:56:45.667Z,6.18
2023-03-17T03:59:11.971Z,5.77
2023-03-17T04:01:38.277Z,5.82
2023-03-17T04:04:04.592Z,5.71
2023-03-17T04:06:30.894Z,6.19
2023-03-17T04:08:58.373Z,5.77
2023-03-17T04:11:24.866Z,6.59
2023-03-17T04:13:51.162Z,6.44
2023-03-17T04:16:17.544Z,6.41
2023-03-17T04:18:43.942Z,6.88
2023-03-17T04:21:10.255Z,7.17
2023-03-17T04:23:36.581Z,6.68
2023-03-17T04:26:02.895Z,7.29
2023-03-17T04:28:29.193Z,7.10
2023-03-17T04:30:55.497Z,7.24
2023-03-17T04:33:21.820Z,7.55
2023-03-17T04:35:48.169Z,7.51
2023-03-17T04:38:14.513Z,7.77
2023-03-17T04:40:40.855Z,7.86
2023-03-17T04:43:07.198Z,8.71
2023-03-17T04:45:33.545Z,8.11
2023-03-17T04:47:59.919Z,7.93
2023-03-17T04:50:26.232Z,7.85
2023-03-17T04:52:52.520Z,8.06
2023-03-17T04:55:18.926Z,8.62
2023-03-17T04:57:45.234Z,8.40
2023-03-17T05:00:11.537Z,8.06
2023-03-17T05:02:37.953Z,8.35
2023-03-17T05:05:04.292Z,8.40
2023-03-17T05:07:32.658Z,8.90
2023-03-17T05:10:00.264Z,8.42
2023-03-17T05:12:26.565Z,8.48
2023-03-17T05:14:52.876Z,8.29
2023-03-17T05:17:19.250Z,8.26
2023-03-17T05:19:45.569Z,8.24
2023-03-17T05:22:11.884Z,8.70
2023-03-17T05:24:38.224Z,9.17
2023-03-17T05:27:04.517Z,8.35
2023-03-17T05:29:30.831Z,7.75
2023-03-17T05:31:57.146Z,8.24
2023-03-17T05:34:23.443Z,8.31
2023-03-17T05:36:49.740Z,8.23
2023-03-17T05:39:16.062Z,8.06
2023-03-17T05:41:42.367Z,7.95
2023-03-17T05:44:08.675Z,7.79
2023-03-17T05:46:35.044Z,6.80
2023-03-17T05:49:01.363Z,6.60
2023-03-17T05:51:27.675Z,6.57
2023-03-17T05:53:54.007Z,6.44
2023-03-17T05:56:20.326Z,6.74
2023-03-17T05:58:46.627Z,6.40
2023-03-17T06:01:12.959Z,5.55
2023-03-17T06:03:39.274Z,6.09
2023-03-17T06:06:05.638Z,7.54
2023-03-17T06:08:31.973Z,6.59
2023-03-17T06:10:58.278Z,5.80
2023-03-17T06:13:24.591Z,6.27
2023-03-17T06:15:50.939Z,6.89
2023-03-17T06:18:17.266Z,7.52
2023-03-17T06:20:43.566Z,8.13
2023-03-17T06:23:09.939Z,8.73
2023-03-17T06:25:36.262Z,9.92
2023-03-17T06:28:02.887Z,10.69
2023-03-17T06:30:29.249Z,11.05
2023-03-17T06:32:55.583Z,11.17
2023-03-17T06:35:21.953Z,10.99
2023-03-17T06:37:48.283Z,10.95
2023-03-17T06:40:14.618Z,11.36
2023-03-17T06:42:40.931Z,11.39
2023-03-17T06:45:07.255Z,11.96
2023-03-17T06:47:33.572Z,11.26
2023-03-17T06:49:59.871Z,11.04
2023-03-17T06:52:26.204Z,11.41
2023-03-17T06:54:52.503Z,11.88
2023-03-17T06:57:18.810Z,12.02
2023-03-17T06:59:45.152Z,12.24
2023-03-17T07:02:11.535Z,12.48
2023-03-17T07:04:38.034Z,12.77
2023-03-17T07:07:04.418Z,15.33
2023-03-17T07:09:30.834Z,20.48
2023-03-17T07:11:57.171Z,17.37
2023-03-17T07:14:23.524Z,13.37
2023-03-17T07:16:49.851Z,12.27
2023-03-17T07:19:16.218Z,13.18
2023-03-17T07:21:42.575Z,12.42
2023-03-17T07:24:08.870Z,11.76
2023-03-17T07:26:35.170Z,12.11
2023-03-17T07:29:01.552Z,11.89
2023-03-17T07:31:27.895Z,12.25
2023-03-17T07:33:56.898Z,12.72
2023-03-17T07:36:23.657Z,11.97
2023-03-17T07:38:49.969Z,11.64
2023-03-17T07:41:16.261Z,12.06
2023-03-17T07:43:42.620Z,11.85
2023-03-17T07:46:08.971Z,11.34
2023-03-17T07:48:35.331Z,11.64
2023-03-17T07:51:01.662Z,11.52
2023-03-17T07:53:27.942Z,11.97
2023-03-17T07:55:54.266Z,12.62
2023-03-17T07:58:20.605Z,12.09
2023-03-17T08:00:46.899Z,11.64
2023-03-17T08:03:13.283Z,11.65
2023-03-17T08:05:39.657Z,11.42
2023-03-17T08:08:06.006Z,10.99
2023-03-17T08:10:32.562Z,11.35
2023-03-17T08:12:59.125Z,11.04
2023-03-17T08:15:25.457Z,10.72
2023-03-17T08:17:51.762Z,11.03
2023-03-17T08:20:18.125Z,11.41
2023-03-17T08:22:44.449Z,11.97
2023-03-17T08:25:10.757Z,11.39
2023-03-17T08:27:37.119Z,11.69
2023-03-17T08:30:03.414Z,11.78
2023-03-17T08:32:29.784Z,11.71
2023-03-17T08:34:56.198Z,11.46
2023-03-17T08:37:22.534Z,11.48
2023-03-17T08:39:48.881Z,11.59
2023-03-17T08:42:15.197Z,10.92
2023-03-17T08:44:43.931Z,10.96
2023-03-17T08:47:10.413Z,11.69
2023-03-17T08:49:36.750Z,12.07
2023-03-17T08:52:03.073Z,11.96
2023-03-17T08:54:29.395Z,11.15
2023-03-17T08:56:55.725Z,10.47
2023-03-17T08:59:22.028Z,10.65
2023-03-17T09:01:48.500Z,10.53
2023-03-17T09:04:14.878Z,10.76
2023-03-17T09:06:51.898Z,10.74
2023-03-17T09:09:27.496Z,11.13
2023-03-17T09:11:53.798Z,11.10
2023-03-17T09:14:20.115Z,10.57
2023-03-17T09:16:46.434Z,10.70
2023-03-17T09:19:12.730Z,10.68
2023-03-17T09:21:39.036Z,10.95
2023-03-17T09:24:05.374Z,10.84
2023-03-17T09:26:31.705Z,11.16
2023-03-17T09:28:58.007Z,10.58
2023-03-17T09:31:24.372Z,10.47
2023-03-17T09:33:50.699Z,10.71
2023-03-17T09:36:17.003Z,10.93
2023-03-17T09:38:43.370Z,10.46
2023-03-17T09:41:09.697Z,10.93
2023-03-17T09:43:35.990Z,10.84
2023-03-17T09:46:02.325Z,10.17
2023-03-17T09:48:28.642Z,10.59
2023-03-17T09:50:54.973Z,10.69
2023-03-17T09:53:21.315Z,10.82
2023-03-17T09:55:47.629Z,10.59
2023-03-17T09:58:13.949Z,11.00
2023-03-17T10:00:40.270Z,10.95
2023-03-17T10:03:06.574Z,11.03
2023-03-17T10:05:33.085Z,10.98
2023-03-17T10:07:59.513Z,10.97
2023-03-17T10:10:25.822Z,10.77
2023-03-17T10:12:52.126Z,11.43
2023-03-17T10:15:19.229Z,10.90
2023-03-17T10:17:45.523Z,10.70
2023-03-17T10:20:11.838Z,10.95
2023-03-17T10:22:38.160Z,10.72
2023-03-17T10:25:04.461Z,10.49
2023-03-17T10:27:30.779Z,10.68
2023-03-17T10:29:57.103Z,10.44
2023-03-17T10:32:23.408Z,10.36
2023-03-17T10:34:49.719Z,10.33
2023-03-17T10:37:16.059Z,10.42
2023-03-17T10:39:42.372Z,10.01
2023-03-17T10:42:08.677Z,10.12
2023-03-17T10:44:35.055Z,10.71
2023-03-17T10:47:01.396Z,10.56
2023-03-17T10:49:27.695Z,9.96
2023-03-17T10:51:54.031Z,9.96
2023-03-17T10:54:20.346Z,9.77
2023-03-17T10:56:46.644Z,9.67
2023-03-17T10:59:13.006Z,9.75
2023-03-17T11:01:39.342Z,10.03
2023-03-17T11:04:05.694Z,9.73
2023-03-17T11:06:32.060Z,9.80
2023-03-17T11:08:58.368Z,9.85
2023-03-17T11:11:24.664Z,9.44
2023-03-17T11:13:50.989Z,9.33
2023-03-17T11:16:17.336Z,9.95
2023-03-17T11:18:43.674Z,9.70
2023-03-17T11:21:09.992Z,9.37
2023-03-17T11:23:36.304Z,9.52
2023-03-17T11:26:02.687Z,8.98
2023-03-17T11:28:29.070Z,9.24
2023-03-17T11:30:55.372Z,9.12
2023-03-17T11:33:21.755Z,9.27
2023-03-17T11:35:48.129Z,9.67
2023-03-17T11:38:14.580Z,9.75
2023-03-17T11:40:40.893Z,9.31
2023-03-17T11:43:07.238Z,9.75
2023-03-17T11:45:33.534Z,10.11
2023-03-17T11:48:00.967Z,10.32
2023-03-17T11:50:27.415Z,9.55
2023-03-17T11:52:53.729Z,8.96
2023-03-17T11:55:20.035Z,9.58
2023-03-17T11:57:46.353Z,10.48
2023-03-17T12:00:12.663Z,10.24
2023-03-17T12:02:38.964Z,9.87
2023-03-17T12:05:05.318Z,10.29
2023-03-17T12:07:31.620Z,10.04
2023-03-17T12:09:57.923Z,10.04
2023-03-17T12:12:24.240Z,9.89
2023-03-17T12:14:50.547Z,9.72
2023-03-17T12:17:16.853Z,10.00
2023-03-17T12:19:43.180Z,9.71
2023-03-17T12:22:09.491Z,9.73
2023-03-17T12:24:35.792Z,9.18
2023-03-17T12:27:02.143Z,10.38
2023-03-17T12:29:28.445Z,10.12
2023-03-17T12:31:54.741Z,9.96
2023-03-17T12:34:21.074Z,9.27
2023-03-17T12:36:47.384Z,9.17
2023-03-17T12:39:13.689Z,9.04
2023-03-17T12:41:40.034Z,9.17
2023-03-17T12:44:06.346Z,8.76
2023-03-17T12:46:32.704Z,8.29
2023-03-17T12:48:59.034Z,8.16
2023-03-17T12:51:25.336Z,9.15
2023-03-17T12:53:51.639Z,8.49
2023-03-17T12:56:18.007Z,7.56
2023-03-17T12:58:44.321Z,6.54
2023-03-17T13:01:10.652Z,7.98
2023-03-17T13:03:37.104Z,6.49
2023-03-17T13:06:03.482Z,6.00
2023-03-17T13:08:29.781Z,6.09
2023-03-17T13:10:56.107Z,6.12
2023-03-17T13:13:22.411Z,6.17
2023-03-17T13:15:48.735Z,6.23
2023-03-17T13:18:15.068Z,5.65
2023-03-17T13:20:41.358Z,4.91
2023-03-17T13:23:07.799Z,4.68
2023-03-17T13:25:34.116Z,4.90
2023-03-17T13:28:00.413Z,4.84
2023-03-17T13:30:26.727Z,4.70
2023-03-17T13:32:54.322Z,4.43
2023-03-17T13:35:20.685Z,4.50
2023-03-17T13:37:46.992Z,4.60
2023-03-17T13:40:13.320Z,4.50
2023-03-17T13:42:39.627Z,4.53
2023-03-17T13:45:05.941Z,4.45
2023-03-17T13:47:32.259Z,4.44
2023-03-17T13:49:58.592Z,5.22
2023-03-17T13:52:24.897Z,6.08
2023-03-17T13:54:51.254Z,8.00
2023-03-17T13:57:17.560Z,5.54
2023-03-17T13:59:43.873Z,6.35
2023-03-17T14:02:10.245Z,5.16
2023-03-17T14:04:36.557Z,4.40
2023-03-17T14:07:02.865Z,4.24
2023-03-17T14:09:29.182Z,4.29
2023-03-17T14:11:55.475Z,4.65
2023-03-17T14:14:32.068Z,4.32
2023-03-17T14:16:59.088Z,4.09
2023-03-17T14:19:25.401Z,3.79
2023-03-17T14:21:51.701Z,4.05
2023-03-17T14:24:18.027Z,3.90
2023-03-17T14:26:44.331Z,3.96
2023-03-17T14:29:10.631Z,3.69
2023-03-17T14:31:37.052Z,3.77
2023-03-17T14:34:03.452Z,4.37
2023-03-17T14:36:29.752Z,4.11
2023-03-17T14:38:56.084Z,3.69
2023-03-17T14:41:22.400Z,3.64
2023-03-17T14:43:48.711Z,3.73
2023-03-17T14:46:15.122Z,3.53
2023-03-17T14:48:41.451Z,3.81
2023-03-17T14:51:07.764Z,3.86
2023-03-17T14:53:34.100Z,4.05
2023-03-17T14:56:00.413Z,4.26
2023-03-17T14:58:26.728Z,4.16
2023-03-17T15:00:53.072Z,4.45
2023-03-17T15:03:19.390Z,4.45
2023-03-17T15:05:45.860Z,4.13
2023-03-17T15:08:12.228Z,4.42
2023-03-17T15:10:38.549Z,4.34
2023-03-17T15:13:04.856Z,4.78
2023-03-17T15:15:31.181Z,4.68
2023-03-17T15:17:57.478Z,4.43
2023-03-17T15:20:23.781Z,4.31
2023-03-17T15:22:50.094Z,4.71
2023-03-17T15:25:16.404Z,4.49
2023-03-17T15:27:42.704Z,4.80
2023-03-17T15:30:09.049Z,5.01
2023-03-17T15:32:35.394Z,4.99
2023-03-17T15:35:01.727Z,5.20
2023-03-17T15:37:28.056Z,5.46
2023-03-17T15:39:54.366Z,5.73
2023-03-17T15:42:20.654Z,5.10
2023-03-17T15:44:46.966Z,5.39
2023-03-17T15:47:13.286Z,5.42
2023-03-17T15:49:39.593Z,7.78
2023-03-17T15:52:05.899Z,6.51
2023-03-17T15:54:32.205Z,7.18
2023-03-17T15:56:58.507Z,6.33
2023-03-17T15:59:24.831Z,6.25
2023-03-17T16:01:51.198Z,5.94
2023-03-17T16:04:17.536Z,5.65
2023-03-17T16:06:43.890Z,6.16
2023-03-17T16:09:10.200Z,12.29
2023-03-17T16:11:36.798Z,8.35
2023-03-17T16:14:03.899Z,10.65
2023-03-17T16:16:30.243Z,92.49
2023-03-17T16:18:56.564Z,76.70
2023-03-17T16:21:22.898Z,34.69
2023-03-17T16:23:49.232Z,12.74
2023-03-17T16:26:16.944Z,199.73
2023-03-17T16:28:43.480Z,220.76
2023-03-17T16:31:09.841Z,158.04
2023-03-17T16:33:36.165Z,18.20
2023-03-17T16:36:02.560Z,30.52
2023-03-17T16:38:28.911Z,149.38
2023-03-17T16:40:55.239Z,76.01
2023-03-17T16:43:25.719Z,68.97
2023-03-17T16:45:52.261Z,29.45
2023-03-17T16:48:18.571Z,11.53
2023-03-17T16:50:44.891Z,8.88
2023-03-17T16:53:11.203Z,8.08
2023-03-17T16:55:37.496Z,7.76
2023-03-17T16:58:03.815Z,5.81
2023-03-17T17:00:30.443Z,5.96
2023-03-17T17:02:56.979Z,5.57
2023-03-17T17:05:23.315Z,5.94
2023-03-17T17:07:49.657Z,5.67
2023-03-17T17:10:15.956Z,5.37
2023-03-17T17:12:42.289Z,5.35
2023-03-17T17:15:08.605Z,5.77
2023-03-17T17:17:34.917Z,6.26
2023-03-17T17:20:01.325Z,5.96
2023-03-17T17:22:27.673Z,5.48
2023-03-17T17:24:53.970Z,6.58
2023-03-17T17:27:20.285Z,11.48
2023-03-17T17:29:46.595Z,11.00
2023-03-17T17:32:12.908Z,10.17
2023-03-17T17:34:39.229Z,9.07
2023-03-17T17:37:05.560Z,7.98
2023-03-17T17:39:31.864Z,8.23
2023-03-17T17:41:58.172Z,7.48
2023-03-17T17:44:24.468Z,7.18
2023-03-17T17:46:50.879Z,6.78
2023-03-17T17:49:17.297Z,7.56
2023-03-17T17:51:43.644Z,7.58
2023-03-17T17:54:09.941Z,6.63
2023-03-17T17:56:36.259Z,5.58
2023-03-17T17:59:02.558Z,5.12
2023-03-17T18:01:28.920Z,4.98
2023-03-17T18:03:55.257Z,4.61
2023-03-17T18:06:21.550Z,4.50
2023-03-17T18:08:47.861Z,4.06
2023-03-17T18:11:14.191Z,3.66
2023-03-17T18:13:40.520Z,3.95
2023-03-17T18:16:06.826Z,4.90
2023-03-17T18:18:33.178Z,5.67
2023-03-17T18:20:59.486Z,5.81
2023-03-17T18:23:25.788Z,5.32
2023-03-17T18:25:52.145Z,5.48
2023-03-17T18:28:18.508Z,5.68
2023-03-17T18:30:44.814Z,5.43
2023-03-17T18:33:11.183Z,4.79
2023-03-17T18:35:37.568Z,4.37
2023-03-17T18:38:03.877Z,4.35
2023-03-17T18:40:30.211Z,3.81
2023-03-17T18:42:56.521Z,3.63
2023-03-17T18:45:22.928Z,3.89
2023-03-17T18:47:49.253Z,4.18
2023-03-17T18:50:15.604Z,4.08
2023-03-17T18:52:41.932Z,4.20
2023-03-17T18:55:08.248Z,4.62
2023-03-17T18:57:34.567Z,4.54
2023-03-17T19:00:00.899Z,4.64
2023-03-17T19:02:27.218Z,5.05
2023-03-17T19:04:53.521Z,4.73
2023-03-17T19:07:19.829Z,4.39
2023-03-17T19:09:46.152Z,4.58
2023-03-17T19:12:12.495Z,4.51
2023-03-17T19:14:38.810Z,4.10
2023-03-17T19:17:05.130Z,3.84
2023-03-17T19:19:31.448Z,3.87
2023-03-17T19:21:57.767Z,3.92
2023-03-17T19:24:24.090Z,3.77
2023-03-17T19:26:50.389Z,3.53
2023-03-17T19:29:16.686Z,3.45
2023-03-17T19:31:43.067Z,3.04
2023-03-17T19:34:09.371Z,2.75
2023-03-17T19:36:35.660Z,3.04
2023-03-17T19:39:01.987Z,3.42
2023-03-17T19:41:28.312Z,3.36
2023-03-17T19:43:54.623Z,3.23
2023-03-17T19:46:20.987Z,3.29
2023-03-17T19:48:47.370Z,3.22
2023-03-17T19:51:13.672Z,3.61
2023-03-17T19:53:39.994Z,3.22
2023-03-17T19:56:06.308Z,3.22
2023-03-17T19:58:32.612Z,3.31
2023-03-17T20:00:58.923Z,3.27
2023-03-17T20:03:26.347Z,3.58
2023-03-17T20:05:52.743Z,3.44
2023-03-17T20:08:19.060Z,4.37
2023-03-17T20:10:45.360Z,3.76
2023-03-17T20:13:11.676Z,4.03
2023-03-17T20:15:38.084Z,3.65
2023-03-17T20:18:04.404Z,4.07
2023-03-17T20:20:31.094Z,3.74
2023-03-17T20:22:57.655Z,3.63
2023-03-17T20:25:23.968Z,3.56
2023-03-17T20:27:50.267Z,3.49
2023-03-17T20:30:16.587Z,3.05
2023-03-17T20:32:42.918Z,3.29
2023-03-17T20:35:09.532Z,3.54
2023-03-17T20:37:36.027Z,3.67
2023-03-17T20:40:02.339Z,3.58
2023-03-17T20:42:28.644Z,3.50
2023-03-17T20:44:54.968Z,3.73
2023-03-17T20:47:21.259Z,4.89
2023-03-17T20:49:47.561Z,4.85
2023-03-17T20:52:13.893Z,4.15
2023-03-17T20:54:40.193Z,3.55
2023-03-17T20:57:06.495Z,3.29
2023-03-17T20:59:32.822Z,3.35
2023-03-17T21:01:59.150Z,3.61
2023-03-17T21:04:25.482Z,3.97
2023-03-17T21:06:51.803Z,3.32
2023-03-17T21:09:18.135Z,3.08
2023-03-17T21:11:44.431Z,2.96
2023-03-17T21:14:10.754Z,2.76
2023-03-17T21:16:37.176Z,6.04
2023-03-17T21:19:03.511Z,8.44
2023-03-17T21:21:29.830Z,5.38
2023-03-17T21:23:56.145Z,3.32
2023-03-17T21:26:22.430Z,2.88
2023-03-17T21:28:48.767Z,3.27
2023-03-17T21:31:15.176Z,3.27
2023-03-17T21:33:41.512Z,3.41
2023-03-17T21:36:07.902Z,3.62
2023-03-17T21:38:34.241Z,3.43
2023-03-17T21:41:00.535Z,3.57
2023-03-17T21:43:26.896Z,3.61
2023-03-17T21:45:53.199Z,3.57
2023-03-17T21:48:19.552Z,3.58
2023-03-17T21:50:45.862Z,3.74
2023-03-17T21:53:12.156Z,3.52
2023-03-17T21:55:38.460Z,3.57
2023-03-17T21:58:04.762Z,3.51
2023-03-17T22:00:39.393Z,3.59
2023-03-17T22:03:10.998Z,3.56
2023-03-17T22:05:37.300Z,3.81
2023-03-17T22:08:03.598Z,4.30
2023-03-17T22:10:30.013Z,3.97
2023-03-17T22:12:56.390Z,3.85
2023-03-17T22:15:23.061Z,3.81
2023-03-17T22:17:49.491Z,3.80
2023-03-17T22:20:15.786Z,3.45
2023-03-17T22:22:42.253Z,3.59
2023-03-17T22:25:08.610Z,3.94
2023-03-17T22:27:34.913Z,3.96
2023-03-17T22:30:01.483Z,3.96
2023-03-17T22:32:27.827Z,4.22
2023-03-17T22:34:54.138Z,4.88
2023-03-17T22:37:20.450Z,4.71
2023-03-17T22:39:46.774Z,4.43
2023-03-17T22:42:13.061Z,4.34
2023-03-17T22:44:39.366Z,4.40
2023-03-17T22:47:05.732Z,4.06
2023-03-17T22:49:32.036Z,4.04
2023-03-17T22:51:58.337Z,4.37
2023-03-17T22:54:24.689Z,4.37
2023-03-17T22:56:51.019Z,4.65
2023-03-17T22:59:17.334Z,4.47
2023-03-17T23:01:43.668Z,4.44
2023-03-17T23:04:10.268Z,3.88
2023-03-17T23:06:36.730Z,4.12
2023-03-17T23:09:03.063Z,4.13
2023-03-17T23:11:29.378Z,3.54
2023-03-17T23:13:55.682Z,3.77
2023-03-17T23:16:26.537Z,3.76
2023-03-17T23:18:52.841Z,3.60
2023-03-17T23:21:19.142Z,3.92
2023-03-17T23:23:45.460Z,3.66
2023-03-17T23:26:11.766Z,3.59
2023-03-17T23:28:38.068Z,3.73
2023-03-17T23:31:04.487Z,3.82
2023-03-17T23:33:30.835Z,3.91
2023-03-17T23:35:57.230Z,3.92
2023-03-17T23:38:23.558Z,3.59
2023-03-17T23:40:49.852Z,3.59
2023-03-17T23:43:16.146Z,3.48
2023-03-17T23:45:42.746Z,3.44
2023-03-17T23:48:11.349Z,3.68
2023-03-17T23:50:37.648Z,3.46
2023-03-17T23:53:04.002Z,3.36
2023-03-17T23:55:30.322Z,3.16
2023-03-17T23:57:56.626Z,3.42
